createdAt,value
2019-02-04T00:03:43.760Z,3.03
2019-02-04T00:06:34.277Z,1.15
2019-02-04T00:09:23.164Z,2.44
2019-02-04T00:12:13.676Z,2.38
2019-02-04T00:15:02.491Z,2.82
2019-02-04T00:17:44.008Z,1.54
2019-02-04T00:20:32.822Z,3.52
2019-02-04T00:23:21.655Z,2.72
2019-02-04T00:26:10.462Z,3.69
2019-02-04T00:28:59.279Z,2.13
2019-02-04T00:31:55.324Z,3.43
2019-02-04T00:34:44.148Z,3.51
2019-02-04T00:37:32.955Z,3.45
2019-02-04T00:40:42.692Z,3.46
2019-02-04T00:43:31.492Z,3.42
2019-02-04T00:46:20.308Z,3.42
2019-02-04T00:49:09.097Z,3.44
2019-02-04T00:51:57.915Z,3.43
2019-02-04T00:54:46.709Z,2.84
2019-02-04T00:57:35.525Z,3.57
2019-02-04T01:00:43.647Z,3.52
2019-02-04T01:03:23.709Z,3.45
2019-02-04T01:06:12.577Z,3.19
2019-02-04T01:09:01.413Z,3.00
2019-02-04T01:11:51.921Z,3.24
2019-02-04T01:14:40.751Z,3.20
2019-02-04T01:17:31.284Z,3.46
2019-02-04T01:20:40.988Z,3.41
2019-02-04T01:23:29.789Z,3.63
2019-02-04T01:26:18.580Z,3.47
2019-02-04T01:29:07.396Z,3.44
2019-02-04T01:31:56.191Z,3.31
2019-02-04T01:34:45.011Z,1.13
2019-02-04T01:37:33.804Z,3.08
2019-02-04T01:40:43.741Z,3.09
2019-02-04T01:43:32.614Z,3.28
2019-02-04T01:46:21.471Z,3.12
2019-02-04T01:49:10.325Z,3.23
2019-02-04T01:51:59.402Z,3.22
2019-02-04T01:54:49.928Z,3.06
2019-02-04T01:57:38.754Z,3.10
2019-02-04T02:00:46.865Z,1.27
2019-02-04T02:03:28.174Z,2.27
2019-02-04T02:06:16.974Z,0.77
2019-02-04T02:09:26.703Z,2.59
2019-02-04T02:12:15.758Z,2.99
2019-02-04T02:15:25.485Z,2.49
2019-02-04T02:18:14.297Z,3.21
2019-02-04T02:21:03.119Z,1.99
2019-02-04T02:23:52.541Z,3.11
2019-02-04T02:26:41.361Z,2.93
2019-02-04T02:29:31.894Z,2.89
2019-02-04T02:32:20.709Z,2.47
2019-02-04T02:35:09.584Z,2.95
2019-02-04T02:37:58.535Z,3.03
2019-02-04T02:40:47.503Z,2.95
2019-02-04T02:43:36.350Z,3.13
2019-02-04T02:46:25.229Z,3.07
2019-02-04T02:49:14.030Z,3.24
2019-02-04T02:52:02.851Z,3.56
2019-02-04T02:54:53.363Z,2.28
2019-02-04T02:57:42.187Z,3.74
2019-02-04T03:00:31.357Z,3.73
2019-02-04T03:03:20.498Z,3.75
2019-02-04T03:06:09.300Z,3.69
2019-02-04T03:08:58.266Z,3.63
2019-02-04T03:11:47.207Z,3.51
2019-02-04T03:14:36.166Z,3.62
2019-02-04T03:17:25.088Z,3.85
2019-02-04T03:20:14.113Z,3.90
2019-02-04T03:23:03.418Z,3.79
2019-02-04T03:25:52.242Z,3.68
2019-02-04T03:28:41.063Z,2.48
2019-02-04T03:31:31.604Z,3.73
2019-02-04T03:34:20.393Z,3.07
2019-02-04T03:37:10.897Z,3.46
2019-02-04T03:39:59.707Z,3.92
2019-02-04T03:42:48.570Z,3.94
2019-02-04T03:45:37.393Z,3.99
2019-02-04T03:48:26.187Z,4.04
2019-02-04T03:51:14.997Z,4.03
2019-02-04T03:54:03.787Z,4.21
2019-02-04T03:56:52.596Z,2.65
2019-02-04T03:59:41.514Z,4.16
2019-02-04T04:02:30.462Z,2.76
2019-02-04T04:05:19.521Z,4.16
2019-02-04T04:08:08.400Z,4.32
2019-02-04T04:10:49.782Z,4.67
2019-02-04T04:13:38.586Z,4.80
2019-02-04T04:16:27.391Z,3.94
2019-02-04T04:19:16.240Z,4.99
2019-02-04T04:22:05.063Z,4.93
2019-02-04T04:24:53.943Z,4.83
2019-02-04T04:27:42.766Z,4.74
2019-02-04T04:30:31.553Z,4.43
2019-02-04T04:33:20.371Z,3.08
2019-02-04T04:36:09.186Z,3.65
2019-02-04T04:38:59.696Z,3.77
2019-02-04T04:41:48.497Z,3.99
2019-02-04T04:44:37.300Z,4.15
2019-02-04T04:47:26.111Z,4.25
2019-02-04T04:50:15.043Z,4.34
2019-02-04T04:53:03.924Z,4.43
2019-02-04T04:55:52.735Z,4.32
2019-02-04T04:58:41.524Z,4.30
2019-02-04T05:01:30.348Z,4.38
2019-02-04T05:04:12.040Z,4.32
2019-02-04T05:07:00.803Z,4.24
2019-02-04T05:09:49.593Z,3.29
2019-02-04T05:12:38.399Z,4.42
2019-02-04T05:15:48.126Z,4.34
2019-02-04T05:18:38.385Z,2.97
2019-02-04T05:21:27.445Z,3.52
2019-02-04T05:24:35.294Z,3.80
2019-02-04T05:27:24.111Z,3.81
2019-02-04T05:30:33.828Z,3.45
2019-02-04T05:33:22.628Z,3.61
2019-02-04T05:36:11.443Z,3.42
2019-02-04T05:39:00.245Z,3.12
2019-02-04T05:41:49.059Z,3.65
2019-02-04T05:44:37.858Z,3.47
2019-02-04T05:47:26.684Z,3.52
2019-02-04T05:50:36.381Z,3.72
2019-02-04T05:53:25.369Z,3.68
2019-02-04T05:56:14.167Z,3.76
2019-02-04T05:59:02.985Z,2.72
2019-02-04T06:01:51.771Z,3.95
2019-02-04T06:04:31.535Z,3.96
2019-02-04T06:07:20.328Z,3.84
2019-02-04T06:10:30.053Z,3.69
2019-02-04T06:13:18.835Z,4.04
2019-02-04T06:16:07.710Z,3.99
2019-02-04T06:19:00.975Z,3.94
2019-02-04T06:21:47.052Z,3.91
2019-02-04T06:24:35.845Z,3.99
2019-02-04T06:27:24.650Z,4.20
2019-02-04T06:30:34.365Z,4.19
2019-02-04T06:33:23.183Z,4.16
2019-02-04T06:36:11.990Z,4.07
2019-02-04T06:39:00.801Z,4.12
2019-02-04T06:41:49.597Z,4.13
2019-02-04T06:44:38.417Z,3.96
2019-02-04T06:47:27.220Z,3.91
2019-02-04T06:50:36.940Z,2.40
2019-02-04T06:53:25.763Z,4.04
2019-02-04T06:56:14.554Z,4.07
2019-02-04T06:59:03.358Z,4.03
2019-02-04T07:01:52.238Z,2.50
2019-02-04T07:04:33.995Z,4.02
2019-02-04T07:07:22.799Z,2.98
2019-02-04T07:10:32.762Z,4.03
2019-02-04T07:13:21.686Z,4.12
2019-02-04T07:16:10.561Z,3.04
2019-02-04T07:18:59.354Z,3.87
2019-02-04T07:21:48.213Z,3.69
2019-02-04T07:24:42.958Z,3.70
2019-02-04T07:27:27.547Z,3.66
2019-02-04T07:30:37.255Z,2.34
2019-02-04T07:33:26.103Z,2.96
2019-02-04T07:36:14.962Z,3.42
2019-02-04T07:39:24.436Z,3.36
2019-02-04T07:42:13.245Z,3.79
2019-02-04T07:45:02.081Z,3.57
2019-02-04T07:47:50.946Z,3.87
2019-02-04T07:50:39.772Z,3.89
2019-02-04T07:53:28.616Z,3.86
2019-02-04T07:56:17.462Z,3.90
2019-02-04T07:59:06.298Z,4.02
2019-02-04T08:01:56.822Z,4.36
2019-02-04T08:04:45.676Z,2.69
2019-02-04T08:07:26.955Z,4.51
2019-02-04T08:10:16.645Z,4.69
2019-02-04T08:13:05.546Z,4.55
2019-02-04T08:15:54.477Z,4.91
2019-02-04T08:18:43.267Z,4.67
2019-02-04T08:21:32.057Z,4.89
2019-02-04T08:24:13.707Z,3.33
2019-02-04T08:27:02.501Z,5.06
2019-02-04T08:29:51.307Z,4.83
2019-02-04T08:32:40.113Z,4.94
2019-02-04T08:35:29.161Z,5.10
2019-02-04T08:38:17.956Z,5.23
2019-02-04T08:41:06.771Z,5.23
2019-02-04T08:43:55.641Z,5.40
2019-02-04T08:46:46.181Z,4.57
2019-02-04T08:49:34.973Z,5.41
2019-02-04T08:52:25.568Z,5.53
2019-02-04T08:55:14.371Z,5.43
2019-02-04T08:58:03.196Z,5.33
2019-02-04T09:00:51.994Z,5.35
2019-02-04T09:03:40.821Z,5.05
2019-02-04T09:06:22.665Z,5.69
2019-02-04T09:09:11.661Z,5.65
2019-02-04T09:12:02.275Z,5.33
2019-02-04T09:14:51.174Z,5.72
2019-02-04T09:17:39.973Z,5.50
2019-02-04T09:20:28.853Z,5.42
2019-02-04T09:23:17.643Z,3.79
2019-02-04T09:26:06.465Z,4.45
2019-02-04T09:28:55.247Z,5.57
2019-02-04T09:31:44.058Z,3.94
2019-02-04T09:34:32.853Z,5.24
2019-02-04T09:37:23.465Z,5.35
2019-02-04T09:40:33.496Z,5.27
2019-02-04T09:43:22.327Z,5.19
2019-02-04T09:46:11.103Z,5.60
2019-02-04T09:48:59.916Z,5.99
2019-02-04T09:51:48.709Z,4.72
2019-02-04T09:54:37.794Z,6.12
2019-02-04T09:57:26.586Z,4.79
2019-02-04T10:00:36.307Z,6.34
2019-02-04T10:03:25.117Z,6.51
2019-02-04T10:06:06.625Z,6.66
2019-02-04T10:08:55.515Z,6.26
2019-02-04T10:11:44.300Z,6.23
2019-02-04T10:14:33.103Z,5.56
2019-02-04T10:17:22.022Z,6.74
2019-02-04T10:20:34.564Z,6.92
2019-02-04T10:23:22.231Z,6.58
2019-02-04T10:26:11.045Z,7.00
2019-02-04T10:29:01.888Z,6.94
2019-02-04T10:31:50.702Z,7.09
2019-02-04T10:34:39.484Z,6.70
2019-02-04T10:37:28.289Z,7.31
2019-02-04T10:40:38.002Z,7.04
2019-02-04T10:43:26.907Z,7.27
2019-02-04T10:46:15.677Z,6.57
2019-02-04T10:49:04.554Z,7.70
2019-02-04T10:51:55.096Z,7.64
2019-02-04T10:54:43.901Z,7.45
2019-02-04T10:57:40.273Z,7.34
2019-02-04T11:00:42.738Z,7.75
2019-02-04T11:03:31.666Z,7.86
2019-02-04T11:06:13.167Z,7.79
2019-02-04T11:09:02.007Z,7.73
2019-02-04T11:11:50.890Z,7.98
2019-02-04T11:14:39.839Z,8.15
2019-02-04T11:17:28.770Z,7.74
2019-02-04T11:20:38.509Z,8.84
2019-02-04T11:23:29.196Z,7.62
2019-02-04T11:26:17.900Z,8.88
2019-02-04T11:29:06.828Z,8.95
2019-02-04T11:31:55.642Z,8.68
2019-02-04T11:34:44.465Z,8.52
2019-02-04T11:37:33.283Z,8.60
2019-02-04T11:40:41.567Z,8.70
2019-02-04T11:43:32.095Z,7.91
2019-02-04T11:46:20.888Z,8.53
2019-02-04T11:49:09.688Z,6.65
2019-02-04T11:51:58.476Z,8.08
2019-02-04T11:54:47.289Z,8.18
2019-02-04T11:57:36.078Z,6.92
2019-02-04T12:00:45.796Z,8.10
2019-02-04T12:03:34.591Z,8.14
2019-02-04T12:06:23.389Z,7.91
2019-02-04T12:09:06.470Z,8.19
2019-02-04T12:11:55.771Z,7.92
2019-02-04T12:14:45.794Z,7.39
2019-02-04T12:17:34.598Z,7.83
2019-02-04T12:20:23.467Z,7.81
2019-02-04T12:23:12.352Z,7.93
2019-02-04T12:26:02.859Z,8.09
2019-02-04T12:28:51.681Z,7.79
2019-02-04T12:31:42.187Z,7.94
2019-02-04T12:34:31.333Z,7.89
2019-02-04T12:40:27.877Z,8.10
2019-02-04T12:43:16.674Z,8.44
2019-02-04T12:46:05.544Z,8.55
2019-02-04T12:48:56.078Z,8.50
2019-02-04T12:51:44.889Z,8.24
2019-02-04T12:54:33.673Z,7.88
2019-02-04T12:57:22.488Z,8.07
2019-02-04T13:00:32.193Z,8.21
2019-02-04T13:03:21.002Z,8.10
2019-02-04T13:06:11.859Z,8.11
2019-02-04T13:08:53.158Z,7.49
2019-02-04T13:11:41.968Z,8.52
2019-02-04T13:14:30.754Z,7.96
2019-02-04T13:17:19.560Z,8.75
2019-02-04T13:20:29.255Z,9.09
2019-02-04T13:23:19.791Z,9.09
2019-02-04T13:26:27.682Z,8.74
2019-02-04T13:29:16.487Z,8.93
2019-02-04T13:32:05.365Z,8.99
2019-02-04T13:34:54.150Z,9.10
2019-02-04T13:38:02.056Z,9.10
2019-02-04T13:40:51.398Z,7.67
2019-02-04T13:43:40.259Z,8.84
2019-02-04T13:46:29.135Z,9.08
2019-02-04T13:49:18.064Z,8.99
2019-02-04T13:52:06.913Z,8.99
2019-02-04T13:54:55.740Z,8.92
2019-02-04T13:57:46.300Z,7.96
2019-02-04T14:00:56.069Z,8.78
2019-02-04T14:03:44.919Z,8.73
2019-02-04T14:06:33.772Z,8.88
2019-02-04T14:09:16.152Z,9.04
2019-02-04T14:12:05.069Z,9.15
2019-02-04T14:14:55.679Z,9.16
2019-02-04T14:20:40.621Z,8.22
2019-02-04T14:23:29.529Z,8.03
2019-02-04T14:26:20.137Z,8.76
2019-02-04T14:29:08.987Z,7.45
2019-02-04T14:31:57.939Z,7.87
2019-02-04T14:34:46.768Z,8.29
2019-02-04T14:37:36.021Z,7.25
2019-02-04T14:40:24.801Z,8.47
2019-02-04T14:43:32.931Z,8.41
2019-02-04T14:46:42.648Z,8.44
2019-02-04T14:50:10.152Z,8.35
2019-02-04T14:53:19.841Z,8.62
2019-02-04T14:56:47.346Z,7.28
2019-02-04T14:59:57.050Z,8.41
2019-02-04T15:03:19.155Z,8.29
2019-02-04T15:06:18.209Z,8.42
2019-02-04T15:09:01.281Z,8.50
2019-02-04T15:12:10.988Z,8.70
2019-02-04T15:15:20.751Z,8.61
2019-02-04T15:18:52.218Z,8.52
2019-02-04T15:22:19.697Z,8.51
2019-02-04T15:25:47.196Z,8.37
2019-02-04T15:28:56.973Z,8.11
2019-02-04T15:32:06.722Z,8.29
2019-02-04T15:35:16.436Z,7.82
2019-02-04T15:38:26.351Z,7.82
2019-02-04T15:41:36.076Z,6.23
2019-02-04T15:44:45.827Z,7.85
2019-02-04T15:47:55.554Z,7.76
2019-02-04T15:51:24.765Z,7.74
2019-02-04T15:54:13.938Z,7.64
2019-02-04T15:57:02.761Z,7.74
2019-02-04T15:59:51.551Z,7.79
2019-02-04T16:02:40.354Z,7.81
2019-02-04T16:05:29.147Z,7.74
2019-02-04T16:08:18.002Z,7.84
2019-02-04T16:10:59.288Z,7.67
2019-02-04T16:13:48.108Z,7.62
2019-02-04T16:16:36.894Z,7.47
2019-02-04T16:19:27.424Z,6.22
2019-02-04T16:22:16.213Z,7.70
2019-02-04T16:25:25.933Z,7.53
2019-02-04T16:28:14.744Z,7.62
2019-02-04T16:31:03.558Z,5.93
2019-02-04T16:33:52.383Z,7.34
2019-02-04T16:37:00.565Z,7.26
2019-02-04T16:39:49.356Z,7.18
2019-02-04T16:42:38.169Z,7.00
2019-02-04T16:48:34.789Z,6.05
2019-02-04T16:51:23.575Z,6.26
2019-02-04T16:54:12.389Z,6.68
2019-02-04T16:57:01.176Z,6.67
2019-02-04T16:59:49.981Z,4.73
2019-02-04T17:02:38.797Z,6.63
2019-02-04T17:05:29.402Z,6.55
2019-02-04T17:08:18.355Z,6.42
2019-02-04T17:11:08.866Z,5.22
2019-02-04T17:13:57.947Z,6.41
2019-02-04T17:16:46.737Z,6.49
2019-02-04T17:19:35.543Z,6.56
2019-02-04T17:25:33.739Z,6.43
2019-02-04T17:28:24.315Z,6.22
2019-02-04T17:31:13.120Z,5.15
2019-02-04T17:34:01.947Z,6.79
2019-02-04T17:36:50.711Z,6.74
2019-02-04T17:39:39.585Z,6.69
2019-02-04T17:42:28.452Z,6.70
2019-02-04T17:45:17.885Z,6.66
2019-02-04T17:51:22.390Z,6.52
2019-02-04T17:54:11.198Z,6.54
2019-02-04T17:56:59.992Z,5.56
2019-02-04T17:59:48.808Z,6.83
2019-02-04T18:02:56.698Z,6.24
2019-02-04T18:05:45.587Z,6.72
2019-02-04T18:08:36.088Z,6.75
2019-02-04T18:11:17.525Z,6.66
2019-02-04T18:14:06.692Z,6.85
2019-02-04T18:16:55.504Z,6.85
2019-02-04T18:19:44.285Z,6.67
2019-02-04T18:22:33.093Z,5.73
2019-02-04T18:25:42.798Z,6.69
2019-02-04T18:28:31.600Z,6.73
2019-02-04T18:31:20.768Z,6.72
2019-02-04T18:34:11.317Z,6.78
2019-02-04T18:37:00.097Z,5.45
2019-02-04T18:39:48.902Z,6.74
2019-02-04T18:42:37.692Z,6.69
2019-02-04T18:45:47.400Z,5.38
2019-02-04T18:48:36.245Z,6.65
2019-02-04T18:51:25.098Z,6.56
2019-02-04T18:54:13.891Z,4.82
2019-02-04T18:57:02.708Z,6.38
2019-02-04T18:59:51.769Z,5.87
2019-02-04T19:02:33.101Z,6.23
2019-02-04T19:05:21.900Z,6.18
2019-02-04T19:08:10.781Z,6.36
2019-02-04T19:10:59.565Z,6.33
2019-02-04T19:13:48.388Z,5.38
2019-02-04T19:16:37.175Z,5.33
2019-02-04T19:19:27.814Z,6.20
2019-02-04T19:22:16.674Z,4.97
2019-02-04T19:25:26.464Z,6.26
2019-02-04T19:28:15.277Z,6.26
2019-02-04T19:31:24.988Z,6.04
2019-02-04T19:34:13.790Z,6.40
2019-02-04T19:37:02.738Z,6.46
2019-02-04T19:39:51.578Z,6.43
2019-02-04T19:42:40.384Z,6.38
2019-02-04T19:45:29.615Z,6.20
2019-02-04T19:48:18.403Z,6.39
2019-02-04T19:51:07.227Z,4.88
2019-02-04T19:53:57.765Z,6.47
2019-02-04T19:56:46.568Z,6.50
2019-02-04T19:59:27.902Z,6.37
2019-02-04T20:02:16.765Z,6.57
2019-02-04T20:05:26.477Z,5.45
2019-02-04T20:08:15.356Z,6.45
2019-02-04T20:14:19.456Z,6.40
2019-02-04T20:17:08.245Z,6.55
2019-02-04T20:19:57.063Z,6.38
2019-02-04T20:22:45.928Z,6.58
2019-02-04T20:28:50.700Z,6.52
2019-02-04T20:31:39.520Z,6.50
2019-02-04T20:34:28.426Z,6.33
2019-02-04T20:37:17.190Z,6.25
2019-02-04T20:40:26.888Z,6.29
2019-02-04T20:43:15.779Z,4.98
2019-02-04T20:46:04.651Z,6.32
2019-02-04T20:48:53.458Z,6.27
2019-02-04T20:51:42.264Z,6.16
2019-02-04T20:54:31.057Z,6.20
2019-02-04T20:57:00.540Z,6.41
2019-02-04T20:59:49.353Z,6.36
2019-02-04T21:02:38.168Z,6.26
2019-02-04T21:05:27.136Z,6.29
2019-02-04T21:08:15.945Z,6.31
2019-02-04T21:11:04.732Z,6.22
2019-02-04T21:13:53.629Z,6.40
2019-02-04T21:16:44.134Z,5.49
2019-02-04T21:19:32.947Z,6.47
2019-02-04T21:22:21.732Z,6.34
2019-02-04T21:25:10.981Z,6.33
2019-02-04T21:27:59.803Z,6.36
2019-02-04T21:30:48.667Z,4.84
2019-02-04T21:33:37.487Z,4.64
2019-02-04T21:36:26.347Z,6.23
2019-02-04T21:39:15.227Z,6.43
2019-02-04T21:42:04.019Z,6.40
2019-02-04T21:44:52.828Z,6.44
2019-02-04T21:47:43.358Z,4.85
2019-02-04T21:50:32.198Z,6.21
2019-02-04T21:53:21.003Z,5.43
2019-02-04T21:56:09.818Z,6.44
2019-02-04T21:58:58.602Z,6.57
2019-02-04T22:01:40.022Z,6.33
2019-02-04T22:04:28.818Z,6.58
2019-02-04T22:07:17.705Z,5.04
2019-02-04T22:10:27.415Z,6.26
2019-02-04T22:13:16.206Z,5.07
2019-02-04T22:16:06.748Z,6.49
2019-02-04T22:18:55.545Z,6.38
2019-02-04T22:21:44.350Z,6.41
2019-02-04T22:24:34.865Z,5.00
2019-02-04T22:27:23.798Z,6.25
2019-02-04T22:30:31.860Z,6.28
2019-02-04T22:33:20.659Z,6.33
2019-02-04T22:36:11.192Z,6.57
2019-02-04T22:38:59.986Z,6.65
2019-02-04T22:41:50.514Z,6.21
2019-02-04T22:44:39.321Z,6.25
2019-02-04T22:47:28.124Z,5.99
2019-02-04T22:50:37.823Z,6.50
2019-02-04T22:53:26.628Z,5.23
2019-02-04T22:56:15.412Z,6.56
2019-02-04T22:59:05.938Z,5.01
2019-02-04T23:01:48.014Z,5.76
2019-02-04T23:04:36.833Z,6.45
2019-02-04T23:07:25.635Z,6.55
2019-02-04T23:10:14.766Z,6.76
2019-02-04T23:13:03.636Z,6.64
2019-02-04T23:15:54.087Z,6.69
2019-02-04T23:18:42.955Z,6.64
2019-02-04T23:21:31.894Z,6.57
2019-02-04T23:24:20.648Z,5.69
2019-02-04T23:27:09.452Z,5.88
2019-02-04T23:30:00.036Z,6.61
2019-02-04T23:32:48.854Z,6.72
2019-02-04T23:35:37.634Z,6.63
2019-02-04T23:38:26.439Z,6.62
2019-02-04T23:41:15.237Z,6.69
2019-02-04T23:47:13.589Z,6.84
2019-02-04T23:50:02.454Z,6.75
2019-02-04T23:52:51.263Z,5.82
2019-02-04T23:55:40.047Z,6.59
2019-02-04T23:58:28.870Z,6.80
